Davie, FL (33314)

6:43 AM EDT on September 21, 2014 (GMT -0400)
Lakeview Estates | Change Station
CLOSE
Current Station
Personal Weather Station
Location: Plantation, FL
Elevation: 15 ft
Nearby Weather Stations

Elev 15 ft 26.10 °N, 80.23 °W | Updated 0 second ago

Partly Cloudy
Partly Cloudy
74.1 °F
Feels Like 72 °F
N
0.0
Wind Variable Wind from South
Gusts 0.0 mph

Today
High -- | Low -- °F
--% Chance of Precip.
Yesterday
High -- | Low -- °F
Precip. -- in
7:09 AM 7:18 PM
Waning Crescent, 7% visible
Pressure 29.94 in
Visibility 10.0 miles
Clouds Scattered Clouds 15000 ft
Scattered Clouds 25000 ft
Heat Index 72 °F
Dew Point 72 °F
Humidity 93%
Rainfall 0.00 in
Snow Depth Not available.
UV 0 out of 12
Pollen 2.70 out of 12
Air Quality Not available.
Flu Activity Not available.
METAR KFLL 210953Z 00000KT 10SM SCT150 SCT250 24/23 A2994 RMK AO2 SLP136 T02390228

More Conditions Fewer Conditions

Pressure 29.94 in
Visibility 10.0 miles
Clouds Scattered Clouds 15000 ft
Scattered Clouds 25000 ft
Heat Index 72 °F
Dew Point 72 °F
Humidity 93%
Rainfall 0.00 in
Snow Depth Not available.
UV 0 out of 12
Pollen 2.70 out of 12
Air Quality Not available.
Flu Activity Not available.
METAR KFLL 210953Z 00000KT 10SM SCT150 SCT250 24/23 A2994 RMK AO2 SLP136 T02390228

More Conditions Fewer Conditions

10-Day Weather Forecast

Almanac

Astronomy

Sep. 21, 2014 Rise Set
Actual Time 7:09 AM EDT 7:18 PM EDT
Civil Twilight 6:46 AM EDT 7:41 PM EDT
Nautical Twilight 6:19 AM EDT 8:08 PM EDT
Astronomical Twilight 5:52 AM EDT 8:35 PM EDT
Moon 4:52 AM EDT 5:45 PM EDT
Length of Visible Light 12h 55m
Length of Day
12h 09m
Tomorrow will be 1m 31s shorter.
Waning Crescent, 7% of the Moon is Illuminated
Today
Waning Crescent
Sep 24
New
Oct 1
First Quarter
Oct 8
Full
Oct 15
Last Quarter

Today's Extremes

State Highs State Lows

Community

WunderPhotos

Upload Photos

1,755,108 photos uploaded!

Nearby

Air Quality

  Air Quality AQ Index Pollutant
Sunday Good
OZONE
Sunday Good
PM2.5

Snow Depth

Station Depth Elevation
No new snow has been reported.

Earthquake Activity

City Distance Mag. Time & Date
No recent earthquake activity has been reported nearby.
Minimum magnitude displayed is 2.5.

Coastal Water Temperatures

Place Temperature
Virginia Key, FL 84.0 °F

Nearby Weather Stations